createdAt,value
2023-03-17T00:02:31.000Z,8
2023-03-17T00:06:04.000Z,8.4
2023-03-17T00:09:37.000Z,8.7
2023-03-17T00:12:28.000Z,7.9
2023-03-17T00:16:00.000Z,7.7
2023-03-17T00:19:33.000Z,7.8
2023-03-17T00:23:06.000Z,8.6
2023-03-17T00:26:38.000Z,8.9
2023-03-17T00:30:11.000Z,9
2023-03-17T00:33:44.000Z,7.8
2023-03-17T00:37:16.000Z,8
2023-03-17T00:40:49.000Z,7.9
2023-03-17T00:44:22.000Z,7.7
2023-03-17T00:47:55.000Z,7.6
2023-03-17T00:50:46.000Z,8.1
2023-03-17T00:54:19.000Z,7.7
2023-03-17T00:57:51.000Z,8.4
2023-03-17T01:01:24.000Z,7.7
2023-03-17T01:04:57.000Z,7.5
2023-03-17T01:08:32.000Z,7.8
2023-03-17T01:12:04.000Z,7.4
2023-03-17T01:15:37.000Z,8.2
2023-03-17T01:19:10.000Z,7.5
2023-03-17T01:22:42.000Z,7.1
2023-03-17T01:26:15.000Z,6.9
2023-03-17T01:29:09.000Z,7.1
2023-03-17T01:32:42.000Z,7.2
2023-03-17T01:36:15.000Z,7.3
2023-03-17T01:39:48.000Z,7.8
2023-03-17T01:43:20.000Z,7.3
2023-03-17T01:46:53.000Z,8.1
2023-03-17T01:50:26.000Z,7.9
2023-03-17T01:53:58.000Z,7
2023-03-17T01:57:31.000Z,7.1
2023-03-17T02:01:03.000Z,7.5
2023-03-17T02:04:36.000Z,7.3
2023-03-17T02:07:28.000Z,7.1
2023-03-17T02:11:00.000Z,7.5
2023-03-17T02:14:33.000Z,7.4
2023-03-17T02:18:05.000Z,7.7
2023-03-17T02:21:38.000Z,7.9
2023-03-17T02:25:11.000Z,7.8
2023-03-17T02:28:44.000Z,11.2
2023-03-17T02:32:16.000Z,13
2023-03-17T02:35:49.000Z,12.8
2023-03-17T02:39:22.000Z,10.8
2023-03-17T02:42:54.000Z,8.5
2023-03-17T02:45:45.000Z,8.2
2023-03-17T02:49:18.000Z,7.9
2023-03-17T02:52:51.000Z,7.6
2023-03-17T02:56:24.000Z,7.5
2023-03-17T02:59:56.000Z,7.9
2023-03-17T03:03:29.000Z,6.9
2023-03-17T03:07:02.000Z,7.3
2023-03-17T03:10:34.000Z,8.3
2023-03-17T03:14:07.000Z,6.6
2023-03-17T03:17:40.000Z,7.2
2023-03-17T03:21:13.000Z,8.2
2023-03-17T03:24:04.000Z,7.5
2023-03-17T03:27:36.000Z,7.8
2023-03-17T03:31:09.000Z,7.7
2023-03-17T03:34:42.000Z,8.1
2023-03-17T03:38:14.000Z,7.2
2023-03-17T03:41:47.000Z,7.2
2023-03-17T03:45:22.000Z,7.7
2023-03-17T03:48:55.000Z,7.1
2023-03-17T03:52:28.000Z,7.4
2023-03-17T03:56:01.000Z,7.2
2023-03-17T03:59:34.000Z,6.9
2023-03-17T04:02:25.000Z,8
2023-03-17T04:05:58.000Z,6.9
2023-03-17T04:09:31.000Z,6.2
2023-03-17T04:13:03.000Z,7.3
2023-03-17T04:16:36.000Z,7.1
2023-03-17T04:20:08.000Z,6.3
2023-03-17T04:23:41.000Z,6.1
2023-03-17T04:27:14.000Z,6.2
2023-03-17T04:30:47.000Z,6.1
2023-03-17T04:34:19.000Z,5.3
2023-03-17T04:37:52.000Z,6.7
2023-03-17T04:40:43.000Z,7.1
2023-03-17T04:44:16.000Z,6.1
2023-03-17T04:47:48.000Z,6
2023-03-17T04:51:21.000Z,5.6
2023-03-17T04:54:54.000Z,5.7
2023-03-17T04:58:30.000Z,5
2023-03-17T05:02:02.000Z,5.3
2023-03-17T05:05:35.000Z,4.8
2023-03-17T05:09:08.000Z,4.7
2023-03-17T05:12:40.000Z,4.2
2023-03-17T05:16:13.000Z,4.4
2023-03-17T05:19:05.000Z,4.6
2023-03-17T05:22:37.000Z,4.6
2023-03-17T05:26:10.000Z,4.6
2023-03-17T05:29:43.000Z,4.9
2023-03-17T05:33:15.000Z,4.4
2023-03-17T05:36:48.000Z,4.9
2023-03-17T05:40:21.000Z,4.7
2023-03-17T05:43:54.000Z,4.6
2023-03-17T05:47:27.000Z,4.5
2023-03-17T05:50:59.000Z,4.7
2023-03-17T05:54:32.000Z,4.9
2023-03-17T05:57:23.000Z,5.1
2023-03-17T06:00:56.000Z,5
2023-03-17T06:04:29.000Z,4.3
2023-03-17T06:08:01.000Z,4.7
2023-03-17T06:11:34.000Z,4.5
2023-03-17T06:15:07.000Z,5
2023-03-17T06:18:39.000Z,10.5
2023-03-17T06:22:12.000Z,22.4
2023-03-17T06:25:44.000Z,14.7
2023-03-17T06:29:17.000Z,14.5
2023-03-17T06:32:50.000Z,7
2023-03-17T06:35:41.000Z,10
2023-03-17T06:39:14.000Z,9
2023-03-17T06:42:47.000Z,8.8
2023-03-17T06:46:19.000Z,7.5
2023-03-17T06:49:52.000Z,5.6
2023-03-17T06:53:25.000Z,5.7
2023-03-17T06:56:58.000Z,6
2023-03-17T07:00:30.000Z,5
2023-03-17T07:04:03.000Z,5
2023-03-17T07:07:36.000Z,4.4
2023-03-17T07:11:08.000Z,5.1
2023-03-17T07:14:00.000Z,4.1
2023-03-17T07:17:32.000Z,4.6
2023-03-17T07:21:05.000Z,4.4
2023-03-17T07:24:38.000Z,4.3
2023-03-17T07:28:11.000Z,5.1
2023-03-17T07:31:44.000Z,6.1
2023-03-17T07:35:16.000Z,6.2
2023-03-17T07:38:49.000Z,5.9
2023-03-17T07:42:22.000Z,6.4
2023-03-17T07:45:54.000Z,5.9
2023-03-17T07:49:30.000Z,5.9
2023-03-17T07:52:25.000Z,5.3
2023-03-17T07:55:58.000Z,5.2
2023-03-17T07:59:31.000Z,5.2
2023-03-17T08:03:04.000Z,5
2023-03-17T08:06:36.000Z,4.5
2023-03-17T08:10:09.000Z,5.3
2023-03-17T08:13:42.000Z,5
2023-03-17T08:17:14.000Z,5.2
2023-03-17T08:20:47.000Z,4.6
2023-03-17T08:24:20.000Z,4.8
2023-03-17T08:27:52.000Z,4.3
2023-03-17T08:30:43.000Z,4.4
2023-03-17T08:34:16.000Z,4
2023-03-17T08:37:49.000Z,4.1
2023-03-17T08:41:21.000Z,4.4
2023-03-17T08:44:54.000Z,4.1
2023-03-17T08:48:27.000Z,3.8
2023-03-17T08:52:00.000Z,4
2023-03-17T08:55:32.000Z,4.1
2023-03-17T08:59:05.000Z,3.9
2023-03-17T09:02:38.000Z,3.9
2023-03-17T09:06:11.000Z,3.7
2023-03-17T09:09:02.000Z,3.8
2023-03-17T09:12:35.000Z,3.9
2023-03-17T09:16:08.000Z,4.2
2023-03-17T09:19:40.000Z,3.4
2023-03-17T09:23:13.000Z,3.6
2023-03-17T09:26:45.000Z,3
2023-03-17T09:30:18.000Z,3.6
2023-03-17T09:33:51.000Z,3.7
2023-03-17T09:37:23.000Z,3.6
2023-03-17T09:40:56.000Z,3.5
2023-03-17T09:44:29.000Z,3.6
2023-03-17T09:47:20.000Z,3.3
2023-03-17T09:50:53.000Z,3.7
2023-03-17T09:54:25.000Z,3.6
2023-03-17T09:57:58.000Z,3.8
2023-03-17T10:01:31.000Z,3.2
2023-03-17T10:05:03.000Z,3.5
2023-03-17T10:08:36.000Z,3.6
2023-03-17T10:12:08.000Z,3.7
2023-03-17T10:15:41.000Z,3.1
2023-03-17T10:19:14.000Z,3.2
2023-03-17T10:22:50.000Z,3.4
2023-03-17T10:25:41.000Z,2.9
2023-03-17T10:29:14.000Z,3.4
2023-03-17T10:32:46.000Z,3.6
2023-03-17T10:36:19.000Z,3.5
2023-03-17T10:40:10.000Z,3.1
2023-03-17T10:43:44.000Z,3.1
2023-03-17T10:47:17.000Z,3
2023-03-17T10:50:50.000Z,3.2
2023-03-17T10:54:22.000Z,3.4
2023-03-17T10:57:55.000Z,3
2023-03-17T11:01:31.000Z,3
2023-03-17T11:04:22.000Z,3.2
2023-03-17T11:07:55.000Z,2.8
2023-03-17T11:11:28.000Z,3.2
2023-03-17T11:15:00.000Z,3.2
2023-03-17T11:18:33.000Z,2.8
2023-03-17T11:22:06.000Z,2.5
2023-03-17T11:25:38.000Z,2.5
2023-03-17T11:29:11.000Z,2.8
2023-03-17T11:32:43.000Z,2.7
2023-03-17T11:36:16.000Z,2.7
2023-03-17T11:39:49.000Z,2.6
2023-03-17T11:42:40.000Z,2.3
2023-03-17T11:46:12.000Z,2.8
2023-03-17T11:49:45.000Z,2.6
2023-03-17T11:53:18.000Z,2.4
2023-03-17T11:56:53.000Z,2.5
2023-03-17T12:00:25.000Z,3
2023-03-17T12:03:59.000Z,2.2
2023-03-17T12:07:32.000Z,2.7
2023-03-17T12:11:04.000Z,2.4
2023-03-17T12:14:37.000Z,2.1
2023-03-17T12:18:10.000Z,2.5
2023-03-17T12:21:01.000Z,2.5
2023-03-17T12:24:34.000Z,2.3
2023-03-17T12:28:06.000Z,2.1
2023-03-17T12:31:39.000Z,2.4
2023-03-17T12:35:12.000Z,2
2023-03-17T12:38:44.000Z,2.4
2023-03-17T12:42:17.000Z,2.3
2023-03-17T12:45:50.000Z,2.3
2023-03-17T12:49:22.000Z,2.5
2023-03-17T12:52:55.000Z,2.4
2023-03-17T12:56:28.000Z,2.3
2023-03-17T12:59:19.000Z,2.3
2023-03-17T13:02:51.000Z,2.5
2023-03-17T13:06:25.000Z,2.3
2023-03-17T13:09:58.000Z,2.2
2023-03-17T13:13:31.000Z,2.3
2023-03-17T13:17:03.000Z,2.3
2023-03-17T13:20:36.000Z,2.3
2023-03-17T13:24:09.000Z,2.3
2023-03-17T13:27:41.000Z,2.4
2023-03-17T13:31:14.000Z,2.1
2023-03-17T13:34:47.000Z,2.2
2023-03-17T13:37:38.000Z,2.9
2023-03-17T13:41:18.000Z,2.3
2023-03-17T13:44:51.000Z,2.6
2023-03-17T13:48:24.000Z,2.6
2023-03-17T13:51:56.000Z,2.4
2023-03-17T13:55:29.000Z,2.4
2023-03-17T13:59:02.000Z,2.5
2023-03-17T14:02:35.000Z,2.3
2023-03-17T14:06:09.000Z,3
2023-03-17T14:09:42.000Z,2.9
2023-03-17T14:13:15.000Z,2.6
2023-03-17T14:16:06.000Z,2.7
2023-03-17T14:19:39.000Z,2.2
2023-03-17T14:23:12.000Z,2.4
2023-03-17T14:26:44.000Z,2.3
2023-03-17T14:30:17.000Z,2.3
2023-03-17T14:33:50.000Z,2.3
2023-03-17T14:37:22.000Z,2.1
2023-03-17T14:40:55.000Z,2
2023-03-17T14:44:28.000Z,2.1
2023-03-17T14:48:00.000Z,2.2
2023-03-17T14:51:33.000Z,2.2
2023-03-17T14:54:24.000Z,1.8
2023-03-17T14:57:57.000Z,1.9
2023-03-17T15:01:29.000Z,1.7
2023-03-17T15:05:02.000Z,1.9
2023-03-17T15:08:36.000Z,1.6
2023-03-17T15:12:08.000Z,1.7
2023-03-17T15:15:41.000Z,2.1
2023-03-17T15:19:14.000Z,1.7
2023-03-17T15:22:46.000Z,1.7
2023-03-17T15:26:19.000Z,1.7
2023-03-17T15:29:52.000Z,1.9
2023-03-17T15:32:43.000Z,1.8
2023-03-17T15:36:16.000Z,1.9
2023-03-17T15:39:58.000Z,1.7
2023-03-17T15:43:31.000Z,1.6
2023-03-17T15:47:03.000Z,2.3
2023-03-17T15:50:36.000Z,2.2
2023-03-17T15:54:08.000Z,2.1
2023-03-17T15:57:41.000Z,1.9
2023-03-17T16:01:20.000Z,1.9
2023-03-17T16:04:53.000Z,2.2
2023-03-17T16:08:26.000Z,1.9
2023-03-17T16:11:17.000Z,2.2
2023-03-17T16:14:50.000Z,2.2
2023-03-17T16:18:22.000Z,2.1
2023-03-17T16:21:55.000Z,1.9
2023-03-17T16:25:27.000Z,2.1
2023-03-17T16:29:00.000Z,1.9
2023-03-17T16:32:33.000Z,1.8
2023-03-17T16:36:06.000Z,2.1
2023-03-17T16:39:39.000Z,2.3
2023-03-17T16:43:11.000Z,2
2023-03-17T16:46:51.000Z,1.8
2023-03-17T16:49:42.000Z,2.3
2023-03-17T16:53:15.000Z,1.7
2023-03-17T16:56:48.000Z,2.2
2023-03-17T17:00:20.000Z,2.6
2023-03-17T17:03:53.000Z,3.3
2023-03-17T17:07:26.000Z,4.4
2023-03-17T17:10:58.000Z,2.7
2023-03-17T17:14:31.000Z,2.3
2023-03-17T17:18:04.000Z,3.6
2023-03-17T17:21:36.000Z,4.4
2023-03-17T17:25:09.000Z,3.7
2023-03-17T17:28:00.000Z,3.4
2023-03-17T17:31:33.000Z,2.4
2023-03-17T17:35:06.000Z,1.8
2023-03-17T17:38:38.000Z,3.1
2023-03-17T17:42:11.000Z,2.9
2023-03-17T17:45:44.000Z,2.3
2023-03-17T17:49:16.000Z,2.2
2023-03-17T17:52:49.000Z,2.2
2023-03-17T17:56:22.000Z,2.4
2023-03-17T17:59:54.000Z,2.1
2023-03-17T18:03:27.000Z,2.3
2023-03-17T18:06:18.000Z,2.3
2023-03-17T18:09:51.000Z,2.2
2023-03-17T18:13:23.000Z,2.6
2023-03-17T18:16:56.000Z,3.1
2023-03-17T18:20:28.000Z,3.3
2023-03-17T18:24:01.000Z,3.8
2023-03-17T18:27:34.000Z,3.1
2023-03-17T18:31:06.000Z,4.5
2023-03-17T18:34:39.000Z,4.8
2023-03-17T18:38:12.000Z,3.4
2023-03-17T18:42:04.000Z,3.3
2023-03-17T18:44:55.000Z,2.7
2023-03-17T18:48:28.000Z,2.5
2023-03-17T18:52:00.000Z,2.5
2023-03-17T18:55:33.000Z,2.3
2023-03-17T18:59:06.000Z,2.7
2023-03-17T19:02:38.000Z,2.7
2023-03-17T19:06:11.000Z,2.6
2023-03-17T19:09:44.000Z,2.3
2023-03-17T19:13:16.000Z,2.5
2023-03-17T19:16:49.000Z,2.9
2023-03-17T19:20:22.000Z,3.1
2023-03-17T19:23:13.000Z,3.1
2023-03-17T19:26:46.000Z,3.2
2023-03-17T19:30:18.000Z,3.9
2023-03-17T19:33:51.000Z,3.5
2023-03-17T19:37:24.000Z,4.1
2023-03-17T19:40:56.000Z,2.9
2023-03-17T19:44:29.000Z,4.4
2023-03-17T19:48:02.000Z,34.1
2023-03-17T19:51:34.000Z,16.4
2023-03-17T19:55:07.000Z,4.4
2023-03-17T19:58:40.000Z,2.9
2023-03-17T20:01:31.000Z,2.9
2023-03-17T20:05:03.000Z,3.1
2023-03-17T20:08:36.000Z,3.9
2023-03-17T20:12:09.000Z,6.2
2023-03-17T20:15:41.000Z,4.7
2023-03-17T20:19:14.000Z,4.2
2023-03-17T20:22:47.000Z,3.9
2023-03-17T20:26:19.000Z,3.4
2023-03-17T20:29:52.000Z,2.9
2023-03-17T20:33:25.000Z,4.5
2023-03-17T20:36:57.000Z,3.2
2023-03-17T20:39:49.000Z,3.5
2023-03-17T20:43:21.000Z,6
2023-03-17T20:46:54.000Z,3.6
2023-03-17T20:50:26.000Z,3.4
2023-03-17T20:53:59.000Z,3.2
2023-03-17T20:57:32.000Z,4.7
2023-03-17T21:01:04.000Z,2.9
2023-03-17T21:04:37.000Z,2.9
2023-03-17T21:08:10.000Z,7.7
2023-03-17T21:11:42.000Z,7.9
2023-03-17T21:15:15.000Z,7.6
2023-03-17T21:18:06.000Z,4.8
2023-03-17T21:21:39.000Z,4.8
2023-03-17T21:25:12.000Z,3.9
2023-03-17T21:28:44.000Z,4.7
2023-03-17T21:32:17.000Z,2.8
2023-03-17T21:35:50.000Z,3.9
2023-03-17T21:39:22.000Z,6.9
2023-03-17T21:42:55.000Z,4
2023-03-17T21:46:28.000Z,4.2
2023-03-17T21:50:00.000Z,4.3
2023-03-17T21:53:33.000Z,4.2
2023-03-17T21:56:25.000Z,3.8
2023-03-17T21:59:57.000Z,4.7
2023-03-17T22:03:30.000Z,3.6
2023-03-17T22:07:03.000Z,4
2023-03-17T22:10:35.000Z,3.6
2023-03-17T22:14:08.000Z,26.4
2023-03-17T22:17:40.000Z,4.2
2023-03-17T22:21:13.000Z,10.5
2023-03-17T22:24:46.000Z,4.7
2023-03-17T22:28:18.000Z,9.8
2023-03-17T22:31:51.000Z,5.8
2023-03-17T22:34:42.000Z,2.7
2023-03-17T22:38:15.000Z,3.8
2023-03-17T22:41:49.000Z,5.4
2023-03-17T22:45:22.000Z,3.8
2023-03-17T22:48:55.000Z,4.6
2023-03-17T22:52:28.000Z,5.2
2023-03-17T22:56:01.000Z,4.8
2023-03-17T22:59:34.000Z,6.7
2023-03-17T23:03:06.000Z,10.3
2023-03-17T23:06:39.000Z,9.6
2023-03-17T23:10:12.000Z,9.9
2023-03-17T23:13:03.000Z,7.8
2023-03-17T23:16:35.000Z,6.7
2023-03-17T23:20:08.000Z,5.4
2023-03-17T23:23:41.000Z,4.3
2023-03-17T23:27:13.000Z,3.1
2023-03-17T23:30:46.000Z,4.3
2023-03-17T23:34:19.000Z,4.6
2023-03-17T23:37:51.000Z,5.9
2023-03-17T23:41:24.000Z,6.9
2023-03-17T23:44:57.000Z,7.6
2023-03-17T23:48:29.000Z,5.8
2023-03-17T23:51:20.000Z,4.5
2023-03-17T23:54:53.000Z,4.1
2023-03-17T23:58:26.000Z,4.3
